Time;durP1;ratioP1;P1;durP2;ratioP2;P2;SDS_P1;SDS_P2;PMS_P1;PMS_P2;Temp;Humidity;BMP_temperature;BMP_pressure;BME280_temperature;BME280_humidity;BME280_pressure;Samples;Min_cycle;Max_cycle;Signal;HPM_P1;HPM_P2
2023/01/21 00:01:44;;;;;;;34.50;20.30;;;0.60;99.90;;;;;;5112834;28;20034;-62
2023/01/21 00:04:10;;;;;;;37.00;21.67;;;0.60;99.90;;;;;;5112896;28;20426;-61
2023/01/21 00:06:35;;;;;;;36.72;21.42;;;0.60;99.90;;;;;;5113164;28;20042;-61
2023/01/21 00:09:02;;;;;;;36.53;21.70;;;0.50;99.90;;;;;;5094838;28;20040;-62
2023/01/21 00:11:28;;;;;;;39.65;22.25;;;0.50;99.90;;;;;;5113060;28;20040;-61
2023/01/21 00:13:54;;;;;;;39.85;22.05;;;0.40;99.90;;;;;;5112847;28;20393;-61
2023/01/21 00:16:19;;;;;;;34.78;22.20;;;0.30;99.90;;;;;;5112897;28;20119;-62
2023/01/21 00:18:48;;;;;;;39.25;21.10;;;0.20;99.90;;;;;;5112981;28;20143;-61
2023/01/21 00:21:14;;;;;;;40.83;22.48;;;0.20;99.90;;;;;;5112929;28;20077;-61
2023/01/21 00:23:40;;;;;;;34.97;20.63;;;0.20;99.90;;;;;;5112727;28;20040;-62
2023/01/21 00:26:07;;;;;;;40.15;22.08;;;0.20;99.90;;;;;;5113112;28;20436;-61
2023/01/21 00:28:35;;;;;;;35.58;20.92;;;0.10;99.90;;;;;;5112884;28;20119;-62
2023/01/21 00:31:03;;;;;;;35.95;21.05;;;0.20;99.90;;;;;;5112908;28;20740;-61
2023/01/21 00:33:30;;;;;;;40.97;21.88;;;0.20;99.90;;;;;;5113039;28;20044;-61
2023/01/21 00:35:58;;;;;;;35.05;20.98;;;0.20;99.90;;;;;;5094465;28;20501;-61
2023/01/21 00:38:23;;;;;;;45.63;24.92;;;0.00;99.90;;;;;;5112702;28;20055;-62
2023/01/21 00:40:49;;;;;;;39.05;21.52;;;0.10;99.90;;;;;;5112935;28;20036;-62
2023/01/21 00:43:14;;;;;;;41.17;23.55;;;0.10;99.90;;;;;;5112796;28;20058;-61
2023/01/21 00:45:40;;;;;;;43.00;23.63;;;-0.10;99.90;;;;;;5112877;28;20382;-61
2023/01/21 00:48:06;;;;;;;44.75;23.92;;;-0.10;99.90;;;;;;5112501;28;20047;-61
2023/01/21 00:50:31;;;;;;;39.95;21.40;;;-0.10;99.90;;;;;;5112746;28;20055;-61
2023/01/21 00:52:57;;;;;;;39.78;22.35;;;-0.10;99.90;;;;;;5112420;28;20031;-62
2023/01/21 00:55:22;;;;;;;43.75;23.40;;;0.00;99.90;;;;;;5112650;28;20432;-62
2023/01/21 00:57:48;;;;;;;41.50;23.83;;;-0.10;99.90;;;;;;5112864;28;20039;-62
2023/01/21 01:00:15;;;;;;;39.80;22.10;;;-0.20;99.90;;;;;;5116099;28;20062;-61
2023/01/21 01:02:40;;;;;;;39.42;23.83;;;-0.30;99.90;;;;;;5116383;28;20059;-62
2023/01/21 01:05:07;;;;;;;35.53;20.52;;;-0.30;99.90;;;;;;5116374;28;20480;-62
2023/01/21 01:07:33;;;;;;;41.60;23.42;;;-0.30;99.90;;;;;;5116275;28;20063;-61
2023/01/21 01:09:59;;;;;;;37.50;22.00;;;-0.40;99.90;;;;;;5116181;28;20040;-62
2023/01/21 01:12:24;;;;;;;44.63;22.45;;;-0.30;99.90;;;;;;5116050;28;20504;-61
2023/01/21 01:14:50;;;;;;;39.40;22.25;;;-0.30;99.90;;;;;;5116182;28;20032;-61
2023/01/21 01:17:16;;;;;;;38.97;22.58;;;-0.40;99.90;;;;;;5116218;28;20046;-62
2023/01/21 01:19:41;;;;;;;46.40;23.25;;;-0.20;99.90;;;;;;5116219;28;20036;-61
2023/01/21 01:22:07;;;;;;;42.03;22.67;;;-0.40;99.90;;;;;;5097764;28;20047;-61
2023/01/21 01:24:32;;;;;;;44.08;23.15;;;-0.30;99.90;;;;;;5115576;28;20409;-62
2023/01/21 01:26:58;;;;;;;41.22;22.00;;;-0.50;99.90;;;;;;5115647;28;20050;-62
2023/01/21 01:29:24;;;;;;;42.97;23.55;;;-0.50;99.90;;;;;;5115989;28;20032;-62
2023/01/21 01:31:49;;;;;;;37.70;22.85;;;-0.40;99.90;;;;;;5115444;28;20077;-62
2023/01/21 01:34:15;;;;;;;43.15;25.98;;;-0.40;99.90;;;;;;5115749;28;20031;-61
2023/01/21 01:36:41;;;;;;;43.83;22.95;;;-0.50;99.90;;;;;;5115787;28;20031;-61
2023/01/21 01:39:06;;;;;;;41.05;23.00;;;-0.50;99.90;;;;;;5115470;28;20031;-62
2023/01/21 01:41:34;;;;;;;43.10;25.02;;;-0.50;99.90;;;;;;5115290;28;20042;-61
2023/01/21 01:44:05;;;;;;;41.45;22.95;;;-0.50;99.90;;;;;;5115299;28;20036;-62
2023/01/21 01:46:34;;;;;;;41.60;24.05;;;-0.60;99.90;;;;;;5115347;28;20588;-62
2023/01/21 01:49:10;;;;;;;41.05;22.08;;;-0.60;99.90;;;;;;5097348;28;20043;-62
2023/01/21 01:51:40;;;;;;;44.13;24.25;;;-0.50;99.90;;;;;;5115252;28;20442;-62
2023/01/21 01:54:06;;;;;;;48.30;24.33;;;-0.50;99.90;;;;;;5112376;28;20118;-62
2023/01/21 01:56:36;;;;;;;45.13;23.23;;;-0.40;99.90;;;;;;5114891;28;20085;-62
2023/01/21 01:59:02;;;;;;;38.85;21.73;;;-0.50;99.90;;;;;;5115309;28;20111;-62
2023/01/21 02:01:28;;;;;;;47.50;25.88;;;-0.60;99.90;;;;;;5115149;28;20115;-62
2023/01/21 02:03:58;;;;;;;47.60;26.05;;;-0.60;99.90;;;;;;5115099;28;20036;-62
2023/01/21 02:06:24;;;;;;;44.25;25.77;;;-0.60;99.90;;;;;;5114580;28;20573;-62
2023/01/21 02:08:50;;;;;;;47.72;25.95;;;-0.70;99.90;;;;;;5111352;28;20036;-62
2023/01/21 02:11:19;;;;;;;68.95;34.58;;;-0.80;99.90;;;;;;5110983;28;20055;-62
2023/01/21 02:13:55;;;;;;;81.60;40.03;;;-0.70;99.90;;;;;;5112355;28;20154;-62
2023/01/21 02:16:51;;;;;;;78.97;38.28;;;-0.60;99.90;;;;;;5096304;28;20061;-62
2023/01/21 02:19:38;;;;;;;70.00;32.97;;;-0.50;99.90;;;;;;5114517;28;20118;-62
2023/01/21 02:22:10;;;;;;;72.63;32.75;;;-0.60;99.90;;;;;;5114669;28;20035;-62
2023/01/21 02:25:15;;;;;;;63.63;31.55;;;-0.70;99.90;;;;;;5114156;28;20071;-62
2023/01/21 02:28:15;;;;;;;47.78;25.77;;;-0.70;99.90;;;;;;5114524;28;20040;-62
2023/01/21 02:31:00;;;;;;;49.25;26.60;;;-0.60;99.90;;;;;;5114583;28;20039;-62
2023/01/21 02:33:36;;;;;;;59.90;28.65;;;-0.50;99.90;;;;;;5114121;28;20070;-62
2023/01/21 02:36:18;;;;;;;44.85;23.95;;;-0.50;99.90;;;;;;5114019;28;20031;-62
2023/01/21 02:39:02;;;;;;;39.63;22.48;;;-0.40;99.90;;;;;;5112397;28;20038;-62
2023/01/21 02:41:37;;;;;;;45.75;22.02;;;-0.40;99.90;;;;;;5114079;28;20039;-62
2023/01/21 02:44:16;;;;;;;43.47;23.08;;;-0.30;99.90;;;;;;5114338;28;20042;-62
2023/01/21 02:46:55;;;;;;;45.50;23.03;;;-0.40;99.90;;;;;;5114452;28;20031;-63
2023/01/21 02:49:29;;;;;;;37.67;22.63;;;-0.50;99.90;;;;;;5113917;28;20043;-62
2023/01/21 02:51:55;;;;;;;38.55;22.90;;;-0.50;99.90;;;;;;5114136;28;20105;-62
2023/01/21 02:54:39;;;;;;;37.25;20.90;;;-0.50;99.90;;;;;;5114046;28;20043;-62
2023/01/21 02:57:05;;;;;;;41.78;21.77;;;-0.60;99.90;;;;;;5113967;28;20035;-62
2023/01/21 02:59:31;;;;;;;39.25;21.95;;;-0.40;99.90;;;;;;5113877;28;20036;-62
2023/01/21 03:02:16;;;;;;;34.95;20.80;;;-0.50;99.90;;;;;;5114092;28;20050;-62
2023/01/21 03:04:52;;;;;;;35.25;20.75;;;-0.70;99.90;;;;;;5113845;28;20393;-62
2023/01/21 03:07:17;;;;;;;35.35;20.45;;;-0.50;99.90;;;;;;5113450;28;20036;-62
2023/01/21 03:09:43;;;;;;;36.20;20.95;;;-0.60;99.90;;;;;;5095990;28;20062;-62
2023/01/21 03:12:16;;;;;;;37.40;21.48;;;-0.70;99.90;;;;;;5095270;28;20036;-62
2023/01/21 03:17:55;;;;;;;38.58;20.98;;;-0.70;99.90;;;;;;5113491;28;20090;-62
2023/01/21 03:20:33;;;;;;;40.65;21.40;;;-0.60;99.90;;;;;;5113491;28;20045;-62
2023/01/21 03:23:07;;;;;;;39.83;21.40;;;-0.60;99.90;;;;;;5113604;28;20108;-62
2023/01/21 03:25:33;;;;;;;46.40;24.05;;;-0.70;99.90;;;;;;5113448;28;20055;-62
2023/01/21 03:28:03;;;;;;;41.42;23.55;;;-0.50;99.90;;;;;;5113821;28;20040;-62
2023/01/21 03:30:32;;;;;;;42.20;22.35;;;-0.70;99.90;;;;;;5113640;28;20088;-62
2023/01/21 03:33:00;;;;;;;45.28;24.40;;;-0.70;99.90;;;;;;5113373;28;20036;-62
2023/01/21 03:35:31;;;;;;;47.80;25.73;;;-0.50;99.90;;;;;;5112955;28;20055;-62
2023/01/21 03:38:04;;;;;;;50.38;26.20;;;-0.60;99.90;;;;;;5113321;28;20039;-62
2023/01/21 03:40:42;;;;;;;51.65;28.42;;;-0.60;99.90;;;;;;5113245;28;20043;-62
2023/01/21 03:43:08;;;;;;;47.75;27.55;;;-0.50;99.90;;;;;;5113225;28;20115;-62
2023/01/21 03:45:40;;;;;;;53.13;27.65;;;-0.60;99.90;;;;;;5113002;28;20035;-62
2023/01/21 03:48:23;;;;;;;51.10;26.02;;;-0.40;99.90;;;;;;5113169;28;20142;-62
2023/01/21 03:50:57;;;;;;;44.20;24.65;;;-0.50;99.90;;;;;;5094906;28;20485;-62
2023/01/21 03:53:23;;;;;;;48.67;26.23;;;-0.30;99.90;;;;;;5113041;28;20077;-62
2023/01/21 03:55:50;;;;;;;46.92;24.63;;;-0.40;99.90;;;;;;5113459;28;20040;-62
2023/01/21 03:58:16;;;;;;;47.22;25.70;;;-0.30;99.90;;;;;;5112938;28;20093;-62
2023/01/21 04:00:41;;;;;;;49.20;25.70;;;-0.20;99.90;;;;;;5112796;28;20084;-62
2023/01/21 04:03:07;;;;;;;45.25;24.70;;;-0.40;99.90;;;;;;5094810;28;20146;-62
2023/01/21 04:05:34;;;;;;;44.88;25.38;;;-0.20;99.90;;;;;;5112793;28;20047;-62
2023/01/21 04:07:59;;;;;;;47.17;25.35;;;-0.30;99.90;;;;;;5113249;28;20045;-62
2023/01/21 04:10:25;;;;;;;50.97;26.17;;;-0.20;99.90;;;;;;5094741;28;20393;-62
2023/01/21 04:12:51;;;;;;;45.10;25.83;;;-0.20;99.90;;;;;;5112965;28;20482;-62
2023/01/21 04:15:16;;;;;;;48.40;26.75;;;-0.10;99.90;;;;;;5112608;28;20036;-62
2023/01/21 04:17:42;;;;;;;45.42;25.92;;;0.00;99.90;;;;;;5112877;28;20032;-62
2023/01/21 04:20:08;;;;;;;45.40;25.33;;;-0.10;99.90;;;;;;5112700;28;20504;-62
2023/01/21 04:22:33;;;;;;;46.67;25.88;;;0.10;99.90;;;;;;5112571;28;20035;-62
2023/01/21 04:24:59;;;;;;;50.40;26.85;;;0.00;99.90;;;;;;5112837;28;20052;-62
2023/01/21 04:27:25;;;;;;;48.97;26.50;;;0.10;99.90;;;;;;5094588;28;20462;-62
2023/01/21 04:29:50;;;;;;;47.55;25.00;;;0.10;99.90;;;;;;5112579;28;20437;-62
2023/01/21 04:32:16;;;;;;;47.25;26.10;;;0.00;99.90;;;;;;5112593;28;20039;-62
2023/01/21 04:34:42;;;;;;;51.45;25.90;;;0.00;99.90;;;;;;5116193;28;20047;-62
2023/01/21 04:37:07;;;;;;;47.85;26.30;;;0.20;99.90;;;;;;5098352;28;20048;-62
2023/01/21 04:39:33;;;;;;;48.60;27.27;;;0.20;99.90;;;;;;5117121;28;20031;-62
2023/01/21 04:41:59;;;;;;;47.80;26.73;;;0.10;99.90;;;;;;5116864;28;20071;-62
2023/01/21 04:44:24;;;;;;;45.60;25.00;;;0.20;99.90;;;;;;5116618;28;20143;-62
2023/01/21 04:46:50;;;;;;;44.38;25.77;;;0.10;99.90;;;;;;5116548;28;20032;-62
2023/01/21 04:49:16;;;;;;;44.75;25.40;;;0.20;99.90;;;;;;5116372;28;20073;-62
2023/01/21 04:51:41;;;;;;;45.63;25.52;;;0.00;99.90;;;;;;5116504;28;20533;-62
2023/01/21 04:54:09;;;;;;;47.45;26.77;;;-0.10;99.90;;;;;;5116064;28;20027;-62
2023/01/21 04:56:35;;;;;;;50.30;27.52;;;0.00;99.90;;;;;;5116314;28;20047;-62
2023/01/21 04:59:00;;;;;;;49.28;27.90;;;-0.10;99.90;;;;;;5116370;28;20040;-62
2023/01/21 05:01:26;;;;;;;51.83;26.60;;;0.10;99.90;;;;;;5116093;28;20035;-62
2023/01/21 05:03:51;;;;;;;42.33;25.58;;;0.20;99.90;;;;;;5116229;28;20385;-62
2023/01/21 05:06:17;;;;;;;47.80;27.30;;;0.20;99.90;;;;;;5115930;28;20066;-61
2023/01/21 05:08:42;;;;;;;45.47;26.13;;;0.20;99.90;;;;;;5097817;28;20151;-62
2023/01/21 05:11:18;;;;;;;49.03;26.50;;;0.00;99.90;;;;;;5097658;28;20366;-62
2023/01/21 05:13:44;;;;;;;44.20;25.15;;;0.20;99.90;;;;;;5115911;28;20039;-62
2023/01/21 05:16:10;;;;;;;48.10;25.90;;;0.20;99.90;;;;;;5115823;28;20043;-62
2023/01/21 05:18:36;;;;;;;48.30;26.70;;;0.20;99.90;;;;;;5115970;28;20114;-62
2023/01/21 05:21:02;;;;;;;45.50;25.70;;;0.10;99.90;;;;;;5115825;28;20043;-62
2023/01/21 05:23:28;;;;;;;44.95;26.40;;;0.10;99.90;;;;;;5115949;28;20046;-62
2023/01/21 05:25:53;;;;;;;50.53;27.23;;;0.30;99.90;;;;;;5115498;28;20062;-62
2023/01/21 05:28:19;;;;;;;45.47;25.60;;;0.20;99.90;;;;;;5115620;28;20460;-62
2023/01/21 05:30:45;;;;;;;47.03;26.77;;;0.10;99.90;;;;;;5115260;28;20040;-62
2023/01/21 05:33:10;;;;;;;46.03;25.48;;;0.30;99.90;;;;;;5115302;28;20054;-62
2023/01/21 05:35:36;;;;;;;44.60;24.92;;;0.00;99.90;;;;;;5097085;28;20047;-62
2023/01/21 05:38:02;;;;;;;46.15;24.73;;;-0.10;99.90;;;;;;5115619;28;20122;-62
2023/01/21 05:40:27;;;;;;;44.70;24.98;;;0.10;99.90;;;;;;5115530;28;20063;-62
2023/01/21 05:42:53;;;;;;;45.35;25.25;;;0.10;99.90;;;;;;5115271;28;20452;-62
2023/01/21 05:45:18;;;;;;;50.30;26.13;;;-0.10;99.90;;;;;;5115193;28;20118;-62
2023/01/21 05:47:44;;;;;;;41.28;24.60;;;0.10;99.90;;;;;;5115347;28;20036;-62
2023/01/21 05:50:10;;;;;;;46.38;25.63;;;-0.10;99.90;;;;;;5115106;28;20469;-62
2023/01/21 05:52:36;;;;;;;42.38;24.55;;;-0.10;99.90;;;;;;5115128;28;20390;-62
2023/01/21 05:55:02;;;;;;;44.70;25.85;;;-0.20;99.90;;;;;;5097049;28;20085;-62
2023/01/21 05:57:29;;;;;;;45.05;26.05;;;-0.10;99.90;;;;;;5114868;28;20462;-62
2023/01/21 05:59:55;;;;;;;45.35;25.95;;;-0.10;99.90;;;;;;5115139;28;20397;-62
2023/01/21 06:02:21;;;;;;;45.70;25.25;;;-0.10;99.90;;;;;;5114866;28;20031;-62
2023/01/21 06:04:46;;;;;;;43.78;25.45;;;-0.10;99.90;;;;;;5115053;28;20092;-62
2023/01/21 06:07:12;;;;;;;46.75;26.35;;;-0.20;99.90;;;;;;5114563;28;20044;-62
2023/01/21 06:09:37;;;;;;;43.25;24.80;;;-0.20;99.90;;;;;;5115066;28;20036;-62
2023/01/21 06:12:03;;;;;;;43.58;24.00;;;-0.40;99.90;;;;;;5114670;28;20035;-62
2023/01/21 06:14:29;;;;;;;43.15;24.33;;;-0.40;99.90;;;;;;5114540;28;20042;-62
2023/01/21 06:16:55;;;;;;;40.63;24.75;;;-0.40;99.90;;;;;;5114139;28;20038;-62
2023/01/21 06:19:20;;;;;;;42.70;24.58;;;-0.40;99.90;;;;;;5114538;28;20475;-62
2023/01/21 06:21:46;;;;;;;47.95;24.75;;;-0.50;99.90;;;;;;5114602;28;20470;-63
2023/01/21 06:24:11;;;;;;;41.58;24.25;;;-0.40;99.90;;;;;;5114042;28;20048;-62
2023/01/21 06:26:37;;;;;;;44.78;24.20;;;-0.60;99.90;;;;;;5114554;28;20057;-62
2023/01/21 06:29:03;;;;;;;50.35;26.33;;;-0.50;99.90;;;;;;5095977;28;20035;-62
2023/01/21 06:31:28;;;;;;;45.03;24.60;;;-0.60;99.90;;;;;;5114064;28;20044;-62
2023/01/21 06:33:54;;;;;;;44.97;25.67;;;-0.50;99.90;;;;;;5114436;28;20067;-62
2023/01/21 06:36:19;;;;;;;47.33;25.50;;;-0.60;99.90;;;;;;5114024;28;20507;-62
2023/01/21 06:38:45;;;;;;;43.35;25.13;;;-0.60;99.90;;;;;;5111893;28;20035;-62
2023/01/21 06:41:11;;;;;;;48.75;26.20;;;-0.60;99.90;;;;;;5109972;28;20043;-62
2023/01/21 06:43:36;;;;;;;46.55;25.50;;;-0.70;99.90;;;;;;5075497;28;20032;-62
2023/01/21 06:46:02;;;;;;;43.38;24.77;;;-0.70;99.90;;;;;;5112397;28;20071;-62
2023/01/21 06:48:28;;;;;;;42.80;24.48;;;-0.70;99.90;;;;;;5114084;28;20039;-62
2023/01/21 06:50:53;;;;;;;47.08;24.23;;;-0.70;99.90;;;;;;5114106;28;20036;-62
2023/01/21 06:53:19;;;;;;;46.30;25.77;;;-0.80;99.90;;;;;;5113925;28;20137;-63
2023/01/21 06:55:46;;;;;;;44.50;25.00;;;-0.90;99.90;;;;;;5113144;28;20046;-62
2023/01/21 06:58:12;;;;;;;44.10;24.67;;;-0.90;99.90;;;;;;5113743;28;20044;-62
2023/01/21 07:00:37;;;;;;;43.05;23.95;;;-0.90;99.90;;;;;;5113778;28;20040;-62
2023/01/21 07:03:03;;;;;;;44.33;25.23;;;-0.90;99.90;;;;;;5113823;28;20030;-62
2023/01/21 07:05:28;;;;;;;41.63;23.38;;;-1.00;99.90;;;;;;5114085;28;20510;-62
2023/01/21 07:07:55;;;;;;;40.35;24.52;;;-0.90;99.90;;;;;;5113973;28;20753;-63
2023/01/21 07:10:22;;;;;;;43.40;24.63;;;-1.00;99.90;;;;;;5111239;28;20122;-62
2023/01/21 07:12:48;;;;;;;40.63;22.90;;;-0.90;99.90;;;;;;5110310;28;20077;-62
2023/01/21 07:15:14;;;;;;;43.47;23.88;;;-0.90;99.90;;;;;;5112193;28;20071;-62
2023/01/21 07:17:40;;;;;;;38.00;22.33;;;-1.00;99.90;;;;;;5113415;28;20082;-62
2023/01/21 07:20:06;;;;;;;47.13;25.63;;;-1.10;99.90;;;;;;5113353;28;20059;-62
2023/01/21 07:22:33;;;;;;;46.53;24.40;;;-1.10;99.90;;;;;;5113175;28;20040;-62
2023/01/21 07:24:59;;;;;;;38.85;22.35;;;-0.90;99.90;;;;;;5094937;28;20059;-62
2023/01/21 07:27:25;;;;;;;46.58;24.75;;;-0.90;99.90;;;;;;5113210;28;20054;-62
2023/01/21 07:29:50;;;;;;;40.65;23.30;;;-0.90;99.90;;;;;;5113189;28;20032;-62
2023/01/21 07:32:16;;;;;;;43.58;23.73;;;-0.80;99.90;;;;;;5113392;28;20039;-61
2023/01/21 07:34:42;;;;;;;43.17;22.95;;;-0.90;99.90;;;;;;5113196;28;20040;-60
2023/01/21 07:37:08;;;;;;;39.53;23.30;;;-1.00;99.90;;;;;;5112990;28;20032;-61
2023/01/21 07:39:33;;;;;;;41.85;23.95;;;-1.10;99.90;;;;;;5111247;28;20492;-60
2023/01/21 07:41:59;;;;;;;45.80;24.63;;;-1.10;99.90;;;;;;5112936;28;20036;-61
2023/01/21 07:44:24;;;;;;;44.90;25.55;;;-1.00;99.90;;;;;;5112940;28;20035;-60
2023/01/21 07:46:50;;;;;;;46.40;26.00;;;-1.00;99.90;;;;;;5112844;28;20027;-60
2023/01/21 07:49:17;;;;;;;45.20;25.17;;;-0.90;99.90;;;;;;5112766;28;20084;-61
2023/01/21 07:51:46;;;;;;;40.45;23.80;;;-1.00;99.90;;;;;;5094136;28;20050;-60
2023/01/21 07:54:13;;;;;;;47.45;25.15;;;-0.90;99.90;;;;;;5113017;28;20031;-60
2023/01/21 07:56:39;;;;;;;47.53;25.35;;;-0.90;99.90;;;;;;5112817;28;20036;-60
2023/01/21 07:59:05;;;;;;;47.15;25.23;;;-0.90;99.90;;;;;;5112505;28;20046;-60
2023/01/21 08:01:31;;;;;;;44.28;25.08;;;-0.90;99.90;;;;;;5113028;28;20115;-60
2023/01/21 08:03:58;;;;;;;45.15;23.75;;;-0.80;99.90;;;;;;5112979;28;20180;-60
2023/01/21 08:06:24;;;;;;;44.38;24.60;;;-1.00;99.90;;;;;;5112726;28;20059;-60
2023/01/21 08:08:49;;;;;;;46.33;24.25;;;-0.80;99.90;;;;;;5116111;27;20082;-61
2023/01/21 08:11:15;;;;;;;44.67;25.02;;;-0.90;99.90;;;;;;5117523;28;20067;-60
2023/01/21 08:13:41;;;;;;;41.78;23.73;;;-1.00;99.90;;;;;;5116967;28;20039;-61
2023/01/21 08:16:10;;;;;;;47.22;24.48;;;-0.80;99.90;;;;;;5098521;28;20051;-60
2023/01/21 08:18:36;;;;;;;47.30;25.05;;;-0.80;99.90;;;;;;5098759;28;20042;-60
2023/01/21 08:21:02;;;;;;;44.53;24.33;;;-0.80;99.90;;;;;;5116758;28;20071;-60
2023/01/21 08:23:28;;;;;;;42.88;23.00;;;-0.80;99.90;;;;;;5117109;28;20083;-60
2023/01/21 08:25:53;;;;;;;42.50;23.65;;;-0.80;99.90;;;;;;5116500;28;20490;-60
2023/01/21 08:28:20;;;;;;;40.70;23.98;;;-1.00;99.90;;;;;;5116655;28;20089;-60
2023/01/21 08:30:46;;;;;;;39.72;23.13;;;-1.00;99.90;;;;;;5117052;28;20118;-60
2023/01/21 08:33:12;;;;;;;40.13;24.33;;;-0.90;99.90;;;;;;5116628;28;20122;-60
2023/01/21 08:35:37;;;;;;;44.70;23.70;;;-1.00;99.90;;;;;;5097941;28;20056;-61
2023/01/21 08:38:03;;;;;;;44.28;25.52;;;-0.90;99.90;;;;;;5116688;28;20035;-60
2023/01/21 08:40:29;;;;;;;51.28;26.50;;;-0.80;99.90;;;;;;5116803;28;20120;-60
2023/01/21 08:42:58;;;;;;;43.22;23.05;;;-0.80;99.90;;;;;;5116781;28;20120;-60
2023/01/21 08:45:25;;;;;;;46.63;25.02;;;-0.70;99.90;;;;;;5116330;28;20035;-60
2023/01/21 08:47:50;;;;;;;48.15;25.55;;;-0.60;99.90;;;;;;5116194;28;20071;-60
2023/01/21 08:50:16;;;;;;;50.63;24.92;;;-0.60;99.90;;;;;;5116545;28;20067;-60
2023/01/21 08:52:42;;;;;;;48.88;26.08;;;-0.40;99.90;;;;;;5116518;28;20521;-60
2023/01/21 08:55:08;;;;;;;47.53;26.45;;;-0.30;99.90;;;;;;5097926;28;20048;-59
2023/01/21 08:57:34;;;;;;;51.10;26.10;;;-0.30;99.90;;;;;;5116083;28;20118;-60
2023/01/21 08:59:59;;;;;;;48.15;27.23;;;-0.20;99.90;;;;;;5116425;28;20110;-60
2023/01/21 09:02:25;;;;;;;50.60;28.65;;;-0.30;99.90;;;;;;5097849;28;20209;-60
2023/01/21 09:04:50;;;;;;;51.85;28.20;;;-0.20;99.90;;;;;;5116080;28;20477;-60
2023/01/21 09:07:16;;;;;;;48.08;27.25;;;-0.10;99.90;;;;;;5115670;28;20565;-60
2023/01/21 09:09:42;;;;;;;50.13;27.20;;;0.00;99.90;;;;;;5115345;28;20032;-60
2023/01/21 09:12:07;;;;;;;57.70;32.70;;;0.20;99.90;;;;;;5112516;28;20057;-60
2023/01/21 09:14:33;;;;;;;59.70;30.55;;;0.30;99.90;;;;;;5113792;28;20472;-60
2023/01/21 09:16:58;;;;;;;47.22;28.67;;;0.50;99.90;;;;;;5116032;28;20087;-61
2023/01/21 09:19:24;;;;;;;51.92;29.77;;;0.40;99.90;;;;;;5115201;28;20028;-61
2023/01/21 09:21:51;;;;;;;57.88;34.03;;;0.40;99.90;;;;;;5115748;28;20032;-61
2023/01/21 09:24:18;;;;;;;48.70;28.58;;;0.40;99.90;;;;;;5115434;28;20054;-60
2023/01/21 09:26:43;;;;;;;45.45;26.48;;;0.50;99.90;;;;;;5115493;28;20061;-60
2023/01/21 09:29:10;;;;;;;47.03;27.45;;;0.50;99.90;;;;;;5115837;28;20039;-60
2023/01/21 09:31:35;;;;;;;46.03;25.00;;;0.60;99.90;;;;;;5115259;28;20065;-61
2023/01/21 09:34:04;;;;;;;48.33;27.90;;;0.70;99.90;;;;;;5097190;28;20055;-60
2023/01/21 09:36:31;;;;;;;44.88;27.75;;;0.90;99.90;;;;;;5115161;28;20074;-60
2023/01/21 09:38:58;;;;;;;45.70;26.20;;;0.90;99.90;;;;;;5115219;28;20393;-59
2023/01/21 09:42:02;;;;;;;47.55;28.02;;;0.90;99.90;;;;;;5112429;28;20043;-60
2023/01/21 09:44:35;;;;;;;50.53;28.65;;;1.00;99.90;;;;;;5009640;28;20536;-59
2023/01/21 09:47:18;;;;;;;53.03;30.40;;;0.90;99.90;;;;;;5011876;28;20034;-59
2023/01/21 09:49:48;;;;;;;53.33;31.08;;;0.90;99.90;;;;;;4996175;28;20516;-61
2023/01/21 09:52:37;;;;;;;47.50;27.65;;;1.00;99.90;;;;;;5012474;28;20034;-60
2023/01/21 09:55:04;;;;;;;46.05;27.60;;;1.00;99.90;;;;;;5012742;28;20566;-60
2023/01/21 09:57:40;;;;;;;49.50;29.08;;;1.10;99.90;;;;;;5012389;28;20033;-60
2023/01/21 10:00:28;;;;;;;46.90;27.30;;;1.20;99.90;;;;;;5012328;28;20037;-60
2023/01/21 10:03:15;;;;;;;47.67;26.92;;;1.30;99.90;;;;;;5012361;28;20207;-60
2023/01/21 10:05:57;;;;;;;47.97;27.63;;;1.40;99.90;;;;;;5012167;28;20116;-60
2023/01/21 10:08:35;;;;;;;43.67;26.35;;;1.50;99.90;;;;;;5012176;28;20540;-61
2023/01/21 10:11:25;;;;;;;40.55;25.05;;;1.80;99.90;;;;;;5011011;28;20041;-61
2023/01/21 10:14:02;;;;;;;41.38;25.13;;;2.10;99.90;;;;;;5012061;28;20100;-62
2023/01/21 10:16:43;;;;;;;41.33;24.55;;;2.30;99.90;;;;;;5114751;28;20054;-62
2023/01/21 10:19:15;;;;;;;41.15;24.20;;;2.50;99.90;;;;;;5114968;28;20542;-61
2023/01/21 10:22:00;;;;;;;46.55;25.42;;;2.70;99.90;;;;;;5115080;28;20439;-61
2023/01/21 10:24:31;;;;;;;36.95;24.88;;;3.00;99.90;;;;;;5114460;28;20043;-61
2023/01/21 10:26:59;;;;;;;39.15;23.05;;;3.20;99.90;;;;;;5114450;28;20044;-61
2023/01/21 10:29:25;;;;;;;38.33;23.70;;;3.40;99.90;;;;;;5114605;28;20405;-61
2023/01/21 10:32:00;;;;;;;37.42;23.75;;;3.60;99.90;;;;;;5113303;28;20043;-62
2023/01/21 10:34:38;;;;;;;36.17;22.23;;;3.70;99.90;;;;;;5114333;28;20047;-61
2023/01/21 10:37:40;;;;;;;34.67;21.08;;;3.80;99.90;;;;;;5114263;28;20035;-61
2023/01/21 10:40:42;;;;;;;30.95;19.33;;;4.00;99.90;;;;;;5113581;28;20035;-61
2023/01/21 10:43:13;;;;;;;31.50;20.92;;;4.00;99.90;;;;;;5113976;28;20036;-61
2023/01/21 10:45:48;;;;;;;25.30;17.10;;;4.10;99.90;;;;;;5113772;28;20043;-62
2023/01/21 10:48:35;;;;;;;25.52;16.85;;;4.20;99.90;;;;;;5095296;28;20166;-62
2023/01/21 10:51:13;;;;;;;24.23;14.93;;;4.30;99.90;;;;;;5094883;28;20193;-62
2023/01/21 10:53:43;;;;;;;24.92;16.02;;;4.40;99.90;;;;;;5113988;28;20039;-62
2023/01/21 10:56:41;;;;;;;20.35;14.90;;;4.40;99.90;;;;;;5113628;28;20036;-61
2023/01/21 10:59:13;;;;;;;24.88;16.67;;;4.60;99.90;;;;;;5113784;28;20077;-62
2023/01/21 11:01:43;;;;;;;22.08;15.07;;;4.60;99.90;;;;;;5113604;28;20043;-61
2023/01/21 11:04:18;;;;;;;21.95;15.30;;;4.80;99.90;;;;;;5095535;28;20043;-61
2023/01/21 11:06:59;;;;;;;21.77;14.63;;;4.90;99.90;;;;;;5113173;28;20481;-61
2023/01/21 11:09:30;;;;;;;20.83;14.85;;;4.90;99.90;;;;;;5113661;28;20047;-61
2023/01/21 11:11:56;;;;;;;23.80;15.15;;;5.00;99.90;;;;;;5113467;28;20040;-61
2023/01/21 11:14:24;;;;;;;20.42;14.43;;;5.10;99.90;;;;;;5113200;28;20044;-61
2023/01/21 11:16:50;;;;;;;22.60;15.10;;;5.30;99.90;;;;;;5113337;28;20051;-61
2023/01/21 11:19:20;;;;;;;22.55;14.50;;;5.30;99.90;;;;;;5113559;28;20043;-60
2023/01/21 11:22:05;;;;;;;20.08;14.02;;;5.50;99.90;;;;;;5113455;28;20113;-62
2023/01/21 11:24:42;;;;;;;19.35;13.95;;;5.60;99.90;;;;;;5090170;28;20547;-60
2023/01/21 11:27:20;;;;;;;16.98;12.88;;;5.70;99.90;;;;;;5092410;28;20162;-60
2023/01/21 11:29:48;;;;;;;16.15;12.32;;;5.80;99.90;;;;;;5091704;28;20364;-60
2023/01/21 11:32:13;;;;;;;21.52;14.25;;;6.10;99.90;;;;;;5092752;28;20036;-60
2023/01/21 11:34:47;;;;;;;18.67;13.23;;;6.10;99.90;;;;;;5092647;28;20380;-60
2023/01/21 11:37:25;;;;;;;17.48;13.05;;;6.20;99.90;;;;;;5073702;28;20386;-60
2023/01/21 11:39:55;;;;;;;17.55;11.63;;;6.30;99.90;;;;;;5092839;28;20147;-60
2023/01/21 11:42:22;;;;;;;15.60;11.20;;;6.30;99.90;;;;;;5091360;28;20063;-59
2023/01/21 11:44:56;;;;;;;16.30;11.63;;;6.20;99.90;;;;;;5092533;28;20539;-60
2023/01/21 11:47:37;;;;;;;15.65;11.35;;;6.30;99.90;;;;;;5092274;28;20382;-60
2023/01/21 11:50:39;;;;;;;14.95;10.32;;;6.30;99.90;;;;;;5092245;28;20491;-60
2023/01/21 11:53:11;;;;;;;14.15;10.52;;;6.50;99.90;;;;;;5092023;28;20039;-60
2023/01/21 11:55:52;;;;;;;14.15;9.88;;;6.60;99.90;;;;;;5092292;28;20048;-61
2023/01/21 11:58:39;;;;;;;13.25;10.10;;;6.70;99.90;;;;;;5092181;28;20425;-60
2023/01/21 12:01:20;;;;;;;12.48;8.98;;;6.80;99.90;;;;;;5092105;28;20090;-61
2023/01/21 12:03:51;;;;;;;13.63;7.97;;;6.90;99.90;;;;;;5091905;28;20482;-60
2023/01/21 12:06:20;;;;;;;10.82;8.48;;;7.30;99.90;;;;;;5091993;28;20040;-60
2023/01/21 12:08:50;;;;;;;10.73;8.43;;;7.30;99.90;;;;;;5092041;28;20470;-60
2023/01/21 12:11:21;;;;;;;11.30;8.95;;;7.50;99.90;;;;;;5090740;28;20386;-60
2023/01/21 12:14:10;;;;;;;12.05;7.93;;;7.50;99.90;;;;;;5092124;28;20035;-60
2023/01/21 12:16:56;;;;;;;8.98;6.95;;;7.50;99.90;;;;;;5091952;28;20036;-60
2023/01/21 12:19:38;;;;;;;10.45;7.93;;;7.40;99.90;;;;;;5092007;28;20094;-60
2023/01/21 12:22:33;;;;;;;9.60;7.63;;;7.60;99.90;;;;;;5092083;28;20040;-61
2023/01/21 12:25:02;;;;;;;10.05;6.22;;;7.80;99.90;;;;;;5100343;28;20051;-61
2023/01/21 12:27:33;;;;;;;8.10;6.60;;;7.80;99.90;;;;;;5112531;28;20050;-61
2023/01/21 12:30:23;;;;;;;7.93;5.72;;;7.70;99.90;;;;;;5094103;28;20036;-61
2023/01/21 12:32:57;;;;;;;5.37;4.10;;;7.70;99.90;;;;;;5094420;28;20076;-60
2023/01/21 12:35:33;;;;;;;7.07;4.70;;;7.60;99.90;;;;;;5112013;28;20124;-60
2023/01/21 12:38:19;;;;;;;5.55;4.28;;;7.60;99.90;;;;;;5112189;28;20168;-60
2023/01/21 12:41:04;;;;;;;4.28;3.30;;;7.60;99.90;;;;;;5111336;28;20107;-60
2023/01/21 12:43:38;;;;;;;3.53;2.97;;;7.40;99.90;;;;;;5090163;28;20054;-61
2023/01/21 12:46:18;;;;;;;5.38;2.80;;;7.10;99.90;;;;;;5108968;28;20058;-61
2023/01/21 12:48:55;;;;;;;3.72;3.03;;;7.00;99.90;;;;;;5111886;28;20047;-61
2023/01/21 12:51:27;;;;;;;5.40;3.70;;;6.80;99.90;;;;;;5111650;28;20031;-60